createdAt,value
2019-03-08T00:00:27.301Z,4.97
2019-03-08T00:02:56.094Z,3.17
2019-03-08T00:05:24.793Z,3.23
2019-03-08T00:07:53.542Z,3.07
2019-03-08T00:10:22.424Z,8.70
2019-03-08T00:12:51.277Z,5.57
2019-03-08T00:15:20.113Z,4.83
2019-03-08T00:17:48.822Z,6.53
2019-03-08T00:20:17.639Z,5.20
2019-03-08T00:22:46.349Z,4.57
2019-03-08T00:25:15.634Z,4.57
2019-03-08T00:27:44.412Z,5.53
2019-03-08T00:30:13.446Z,5.60
2019-03-08T00:32:42.393Z,2.77
2019-03-08T00:35:11.466Z,5.27
2019-03-08T00:37:40.197Z,3.63
2019-03-08T00:40:09.101Z,5.07
2019-03-08T00:42:37.814Z,4.10
2019-03-08T00:45:07.065Z,8.63
2019-03-08T00:47:36.079Z,2.93
2019-03-08T00:50:05.577Z,6.30
2019-03-08T00:52:34.326Z,4.37
2019-03-08T00:55:03.124Z,8.63
2019-03-08T00:57:31.850Z,5.87
2019-03-08T01:00:00.587Z,6.07
2019-03-08T01:02:29.589Z,8.63
2019-03-08T01:04:58.377Z,10.13
2019-03-08T01:07:27.109Z,6.03
2019-03-08T01:09:55.823Z,9.97
2019-03-08T01:12:24.638Z,7.63
2019-03-08T01:14:53.533Z,9.03
2019-03-08T01:17:22.599Z,7.80
2019-03-08T01:19:51.326Z,11.00
2019-03-08T01:22:20.109Z,7.70
2019-03-08T01:24:48.907Z,10.00
2019-03-08T01:27:17.673Z,13.23
2019-03-08T01:29:46.412Z,7.83
2019-03-08T01:32:15.221Z,13.90
2019-03-08T01:34:44.009Z,13.80
2019-03-08T01:37:13.370Z,14.70
2019-03-08T01:39:42.153Z,21.30
2019-03-08T01:42:10.942Z,11.07
2019-03-08T01:44:39.662Z,21.37
2019-03-08T01:47:08.365Z,17.87
2019-03-08T01:49:37.101Z,17.17
2019-03-08T01:52:05.851Z,16.83
2019-03-08T01:54:34.590Z,16.17
2019-03-08T01:57:03.319Z,19.87
2019-03-08T01:59:32.045Z,14.87
2019-03-08T02:02:00.849Z,15.83
2019-03-08T02:04:29.902Z,16.23
2019-03-08T02:06:58.722Z,24.10
2019-03-08T02:09:27.453Z,22.83
2019-03-08T02:11:56.274Z,25.77
2019-03-08T02:14:25.259Z,19.90
2019-03-08T02:16:53.985Z,18.43
2019-03-08T02:19:22.709Z,26.27
2019-03-08T02:21:51.522Z,29.87
2019-03-08T02:24:20.245Z,20.50
2019-03-08T02:26:48.977Z,26.07
2019-03-08T02:29:17.998Z,21.27
2019-03-08T02:31:46.735Z,18.30
2019-03-08T02:34:15.464Z,23.80
2019-03-08T02:36:44.217Z,27.63
2019-03-08T02:39:13.000Z,23.50
2019-03-08T02:41:41.797Z,30.57
2019-03-08T02:44:10.621Z,27.97
2019-03-08T02:46:39.382Z,20.53
2019-03-08T02:49:08.189Z,29.87
2019-03-08T02:51:36.921Z,24.77
2019-03-08T02:54:05.680Z,19.40
2019-03-08T02:56:34.457Z,24.53
2019-03-08T02:59:03.272Z,26.27
2019-03-08T03:01:31.994Z,24.97
2019-03-08T03:04:00.714Z,22.00
2019-03-08T03:06:29.437Z,22.87
2019-03-08T03:08:58.137Z,26.53
2019-03-08T03:11:27.185Z,20.00
2019-03-08T03:13:55.908Z,18.93
2019-03-08T03:16:24.609Z,16.40
2019-03-08T03:18:53.343Z,15.27
2019-03-08T03:21:22.081Z,14.97
2019-03-08T03:23:50.842Z,17.17
2019-03-08T03:26:19.934Z,17.80
2019-03-08T03:28:48.669Z,17.60
2019-03-08T03:31:17.378Z,17.80
2019-03-08T03:33:46.099Z,21.43
2019-03-08T03:36:14.952Z,18.60
2019-03-08T03:38:43.665Z,20.63
2019-03-08T03:41:12.737Z,22.23
2019-03-08T03:43:41.552Z,28.93
2019-03-08T03:46:10.262Z,24.17
2019-03-08T03:48:38.981Z,21.20
2019-03-08T03:51:07.722Z,26.50
2019-03-08T03:53:36.413Z,35.53
2019-03-08T03:56:05.411Z,27.03
2019-03-08T03:58:34.185Z,29.03
2019-03-08T04:01:19.909Z,27.20
2019-03-08T04:03:48.667Z,27.70
2019-03-08T04:06:17.345Z,24.20
2019-03-08T04:08:46.091Z,18.87
2019-03-08T04:11:14.801Z,34.40
2019-03-08T04:13:43.510Z,27.90
2019-03-08T04:16:12.302Z,22.90
2019-03-08T04:18:41.030Z,27.70
2019-03-08T04:21:09.905Z,27.77
2019-03-08T04:23:38.682Z,32.93
2019-03-08T04:26:07.438Z,38.43
2019-03-08T04:28:36.150Z,40.63
2019-03-08T04:31:05.033Z,25.10
2019-03-08T04:33:33.774Z,27.83
2019-03-08T04:36:02.891Z,21.33
2019-03-08T04:38:31.594Z,31.23
2019-03-08T04:41:00.357Z,34.07
2019-03-08T04:43:29.069Z,26.47
2019-03-08T04:45:57.767Z,28.83
2019-03-08T04:48:26.539Z,33.97
2019-03-08T04:50:55.533Z,32.17
2019-03-08T04:53:24.278Z,25.67
2019-03-08T04:55:53.025Z,23.70
2019-03-08T04:58:21.807Z,23.40
2019-03-08T05:00:50.554Z,24.97
2019-03-08T05:03:19.305Z,29.43
2019-03-08T05:05:48.280Z,21.93
2019-03-08T05:08:17.001Z,36.17
2019-03-08T05:10:45.723Z,26.83
2019-03-08T05:13:14.842Z,29.10
2019-03-08T05:15:43.565Z,30.03
2019-03-08T05:18:12.333Z,20.80
2019-03-08T05:20:41.409Z,24.60
2019-03-08T05:23:10.291Z,36.40
2019-03-08T05:25:39.019Z,31.63
2019-03-08T05:28:07.738Z,22.83
2019-03-08T05:30:36.459Z,29.17
2019-03-08T05:33:05.254Z,21.73
2019-03-08T05:35:34.334Z,37.20
2019-03-08T05:38:03.042Z,27.87
2019-03-08T05:40:31.804Z,26.33
2019-03-08T05:43:00.516Z,21.87
2019-03-08T05:45:29.396Z,31.93
2019-03-08T05:47:58.164Z,20.53
2019-03-08T05:50:27.059Z,28.30
2019-03-08T05:52:55.786Z,23.10
2019-03-08T05:55:24.517Z,28.13
2019-03-08T05:57:53.233Z,27.57
2019-03-08T06:00:31.330Z,26.03
2019-03-08T06:02:53.105Z,33.90
2019-03-08T06:05:22.101Z,29.20
2019-03-08T06:07:50.810Z,34.17
2019-03-08T06:10:30.202Z,27.27
2019-03-08T06:12:59.126Z,22.70
2019-03-08T06:15:27.917Z,26.53
2019-03-08T06:17:56.953Z,19.73
2019-03-08T06:20:25.749Z,21.83
2019-03-08T06:22:54.462Z,26.47
2019-03-08T06:25:23.195Z,28.20
2019-03-08T06:27:51.969Z,20.87
2019-03-08T06:30:20.753Z,24.40
2019-03-08T06:32:49.777Z,21.43
2019-03-08T06:35:18.633Z,29.43
2019-03-08T06:37:47.381Z,19.80
2019-03-08T06:40:16.198Z,28.53
2019-03-08T06:42:44.983Z,23.50
2019-03-08T06:45:14.355Z,22.20
2019-03-08T06:47:43.905Z,20.53
2019-03-08T06:50:12.912Z,22.90
2019-03-08T06:52:41.728Z,26.80
2019-03-08T06:55:11.496Z,28.30
2019-03-08T06:57:40.210Z,20.60
2019-03-08T07:00:22.261Z,28.10
2019-03-08T07:02:50.989Z,17.90
2019-03-08T07:05:19.693Z,19.33
2019-03-08T07:07:48.472Z,22.87
2019-03-08T07:10:17.233Z,19.47
2019-03-08T07:12:45.933Z,19.83
2019-03-08T07:15:14.954Z,21.20
2019-03-08T07:17:43.726Z,26.27
2019-03-08T07:20:24.661Z,23.47
2019-03-08T07:23:27.316Z,16.73
2019-03-08T07:26:00.717Z,27.17
2019-03-08T07:28:47.194Z,19.13
2019-03-08T07:31:34.407Z,18.37
2019-03-08T07:34:22.310Z,21.90
2019-03-08T07:37:08.008Z,18.50
2019-03-08T07:40:09.766Z,14.30
2019-03-08T07:42:47.288Z,22.93
2019-03-08T07:45:36.097Z,18.40
2019-03-08T07:48:10.793Z,28.57
2019-03-08T07:50:55.899Z,16.33
2019-03-08T07:53:42.781Z,16.90
2019-03-08T07:56:18.665Z,22.60
2019-03-08T07:59:06.585Z,14.70
2019-03-08T08:02:06.679Z,18.50
2019-03-08T08:05:01.565Z,12.87
2019-03-08T08:07:44.549Z,14.97
2019-03-08T08:10:27.905Z,13.30
2019-03-08T08:13:11.538Z,15.87
2019-03-08T08:15:47.503Z,20.10
2019-03-08T08:18:34.005Z,15.53
2019-03-08T08:21:21.547Z,14.23
2019-03-08T08:24:03.353Z,7.77
2019-03-08T08:26:54.267Z,11.30
2019-03-08T08:30:00.364Z,7.80
2019-03-08T08:32:50.777Z,10.63
2019-03-08T08:35:31.629Z,8.63
2019-03-08T08:38:19.185Z,11.00
2019-03-08T08:41:04.846Z,11.80
2019-03-08T08:43:43.073Z,2.77
2019-03-08T08:46:22.073Z,7.17
2019-03-08T08:49:07.218Z,4.67
2019-03-08T08:51:53.049Z,7.73
2019-03-08T08:54:30.247Z,5.70
2019-03-08T08:57:17.178Z,7.30
2019-03-08T08:59:53.829Z,7.10
2019-03-08T09:02:45.009Z,8.67
2019-03-08T09:05:29.410Z,10.13
2019-03-08T09:08:12.821Z,13.63
2019-03-08T09:10:59.565Z,8.00
2019-03-08T09:13:46.400Z,9.83
2019-03-08T09:16:33.265Z,10.47
2019-03-08T09:19:10.581Z,12.40
2019-03-08T09:21:52.412Z,16.27
2019-03-08T09:24:26.638Z,11.13
2019-03-08T09:27:20.589Z,13.80
2019-03-08T09:30:14.453Z,15.67
2019-03-08T09:33:08.073Z,13.20
2019-03-08T09:35:58.805Z,14.63
2019-03-08T09:38:39.497Z,12.97
2019-03-08T09:41:39.533Z,11.10
2019-03-08T09:44:20.199Z,10.43
2019-03-08T09:47:14.148Z,14.60
2019-03-08T09:49:51.294Z,11.70
2019-03-08T09:52:24.534Z,19.60
2019-03-08T09:55:04.801Z,17.97
2019-03-08T09:57:43.009Z,14.47
2019-03-08T10:00:35.521Z,10.00
2019-03-08T10:03:15.906Z,13.83
2019-03-08T10:05:55.887Z,14.07
2019-03-08T10:08:32.021Z,18.50
2019-03-08T10:11:07.177Z,15.97
2019-03-08T10:13:55.261Z,20.83
2019-03-08T10:16:28.720Z,20.27
2019-03-08T10:19:23.593Z,12.63
2019-03-08T10:22:04.298Z,11.73
2019-03-08T10:24:45.437Z,15.33
2019-03-08T10:27:20.386Z,17.97
2019-03-08T10:30:17.550Z,16.10
2019-03-08T10:32:52.370Z,9.67
2019-03-08T10:35:52.689Z,15.73
2019-03-08T10:38:30.081Z,10.77
2019-03-08T10:41:24.146Z,12.33
2019-03-08T10:44:15.578Z,10.00
2019-03-08T10:47:09.500Z,11.57
2019-03-08T10:49:55.338Z,8.73
2019-03-08T10:52:29.042Z,12.17
2019-03-08T10:55:15.753Z,10.87
2019-03-08T10:58:02.746Z,9.47
2019-03-08T11:00:42.342Z,9.30
2019-03-08T11:03:28.121Z,11.87
2019-03-08T11:06:15.958Z,11.70
2019-03-08T11:08:50.555Z,9.30
2019-03-08T11:11:37.375Z,9.27
2019-03-08T11:14:21.005Z,8.63
2019-03-08T11:16:59.425Z,8.60
2019-03-08T11:20:05.397Z,8.43
2019-03-08T11:22:47.906Z,11.87
2019-03-08T11:25:35.235Z,10.77
2019-03-08T11:28:20.991Z,9.37
2019-03-08T11:31:07.245Z,11.17
2019-03-08T11:33:44.357Z,20.03
2019-03-08T11:36:30.811Z,13.37
2019-03-08T11:39:06.226Z,15.70
2019-03-08T11:41:41.062Z,8.23
2019-03-08T11:44:27.945Z,12.37
2019-03-08T11:47:07.876Z,14.10
2019-03-08T11:49:56.445Z,11.43
2019-03-08T11:52:47.493Z,10.47
2019-03-08T11:55:30.392Z,9.07
2019-03-08T11:58:14.505Z,12.67
2019-03-08T12:00:57.331Z,10.33
2019-03-08T12:03:36.463Z,11.37
2019-03-08T12:06:27.217Z,7.90
2019-03-08T12:09:01.941Z,12.80
2019-03-08T12:11:49.843Z,10.17
2019-03-08T12:14:24.664Z,11.37
2019-03-08T12:17:09.806Z,12.87
2019-03-08T12:19:47.450Z,6.00
2019-03-08T12:22:26.119Z,9.37
2019-03-08T12:25:17.037Z,8.70
2019-03-08T12:28:03.570Z,8.27
2019-03-08T12:30:38.452Z,12.87
2019-03-08T12:33:13.188Z,6.10
2019-03-08T12:35:56.345Z,9.07
2019-03-08T12:38:46.962Z,6.80
2019-03-08T12:41:21.225Z,6.00
2019-03-08T12:44:13.427Z,8.87
2019-03-08T12:46:47.879Z,6.97
2019-03-08T12:49:36.958Z,6.63
2019-03-08T12:52:13.398Z,6.40
2019-03-08T12:54:50.543Z,7.23
2019-03-08T12:57:43.229Z,6.17
2019-03-08T13:00:21.270Z,7.23
2019-03-08T13:03:01.451Z,6.83
2019-03-08T13:05:48.165Z,9.13
2019-03-08T13:08:32.870Z,7.10
2019-03-08T13:11:01.777Z,6.67
2019-03-08T13:13:30.497Z,5.53
2019-03-08T13:15:59.248Z,2.40
2019-03-08T13:18:28.759Z,3.90
2019-03-08T13:20:57.454Z,6.90
2019-03-08T13:23:26.154Z,4.03
2019-03-08T13:25:54.926Z,6.60
2019-03-08T13:28:23.731Z,6.03
2019-03-08T13:30:52.459Z,6.63
2019-03-08T13:33:21.468Z,5.10
2019-03-08T13:35:50.266Z,6.87
2019-03-08T13:38:18.985Z,4.50
2019-03-08T13:40:48.854Z,9.60
2019-03-08T13:43:17.573Z,6.13
2019-03-08T13:45:46.405Z,3.37
2019-03-08T13:48:15.318Z,6.47
2019-03-08T13:50:44.194Z,4.17
2019-03-08T13:53:12.946Z,4.73
2019-03-08T13:55:41.761Z,4.37
2019-03-08T13:58:10.483Z,4.63
2019-03-08T14:00:39.258Z,4.93
2019-03-08T14:03:07.974Z,5.80
2019-03-08T14:05:36.709Z,2.97
2019-03-08T14:08:05.511Z,6.43
2019-03-08T14:10:34.257Z,6.37
2019-03-08T14:13:03.042Z,7.27
2019-03-08T14:15:31.737Z,3.63
2019-03-08T14:18:00.467Z,3.90
2019-03-08T14:20:29.197Z,4.03
2019-03-08T14:22:57.899Z,3.97
2019-03-08T14:25:26.806Z,6.10
2019-03-08T14:27:55.521Z,3.90
2019-03-08T14:30:26.819Z,6.07
2019-03-08T14:32:58.035Z,10.37
2019-03-08T14:35:29.772Z,7.07
2019-03-08T14:37:57.153Z,6.83
2019-03-08T14:40:45.173Z,6.73
2019-03-08T14:43:25.935Z,7.83
2019-03-08T14:45:59.778Z,5.27
2019-03-08T14:48:28.486Z,12.97
2019-03-08T14:50:57.469Z,5.20
2019-03-08T14:53:28.523Z,9.77
2019-03-08T14:55:59.156Z,4.10
2019-03-08T14:58:27.245Z,6.13
2019-03-08T15:00:56.092Z,3.83
2019-03-08T15:03:24.922Z,7.23
2019-03-08T15:05:54.895Z,6.23
2019-03-08T15:08:24.285Z,4.07
2019-03-08T15:10:52.998Z,6.53
2019-03-08T15:13:24.079Z,9.67
2019-03-08T15:15:52.283Z,9.50
2019-03-08T15:18:21.045Z,4.77
2019-03-08T15:20:49.794Z,11.97
2019-03-08T15:23:18.589Z,6.77
2019-03-08T15:25:49.069Z,2.37
2019-03-08T15:28:17.876Z,8.33
2019-03-08T15:30:46.889Z,3.90
2019-03-08T15:33:15.720Z,4.13
2019-03-08T15:35:44.590Z,9.40
2019-03-08T15:38:13.434Z,5.27
2019-03-08T15:40:42.321Z,7.83
2019-03-08T15:43:13.603Z,5.27
2019-03-08T15:45:44.374Z,5.17
2019-03-08T15:48:14.596Z,4.60
2019-03-08T15:50:46.257Z,8.47
2019-03-08T15:53:13.309Z,3.40
2019-03-08T15:55:52.102Z,4.17
2019-03-08T15:58:12.786Z,7.57
2019-03-08T16:00:41.656Z,3.58
2019-03-08T16:03:10.365Z,6.03
2019-03-08T16:05:39.086Z,7.00
2019-03-08T16:08:08.099Z,9.33
2019-03-08T16:10:36.809Z,3.63
2019-03-08T16:13:05.621Z,4.33
2019-03-08T16:15:35.962Z,4.70
2019-03-08T16:18:05.045Z,7.80
2019-03-08T16:20:37.390Z,6.20
2019-03-08T16:23:06.608Z,8.93
2019-03-08T16:25:34.891Z,4.67
2019-03-08T16:28:03.651Z,4.73
2019-03-08T16:30:35.037Z,4.20
2019-03-08T16:33:23.498Z,7.30
2019-03-08T16:36:04.993Z,3.20
2019-03-08T16:38:39.706Z,5.63
2019-03-08T16:41:18.520Z,5.00
2019-03-08T16:43:53.095Z,6.23
2019-03-08T16:46:37.053Z,6.97
2019-03-08T16:49:20.581Z,5.70
2019-03-08T16:51:59.248Z,8.00
2019-03-08T16:54:46.870Z,8.07
2019-03-08T16:57:40.468Z,5.00
2019-03-08T17:00:16.030Z,4.70
2019-03-08T17:03:02.813Z,6.43
2019-03-08T17:05:50.633Z,8.03
2019-03-08T17:08:38.473Z,4.63
2019-03-08T17:11:26.790Z,5.10
2019-03-08T17:14:13.558Z,9.13
2019-03-08T17:16:50.953Z,12.07
2019-03-08T17:19:41.604Z,6.63
2019-03-08T17:22:19.760Z,5.60
2019-03-08T17:24:59.163Z,6.53
2019-03-08T17:27:46.189Z,8.70
2019-03-08T17:30:36.434Z,3.60
2019-03-08T17:33:23.409Z,8.83
2019-03-08T17:35:59.250Z,6.70
2019-03-08T17:38:54.874Z,4.73
2019-03-08T17:41:48.126Z,5.50
2019-03-08T17:44:34.957Z,9.07
2019-03-08T17:47:29.044Z,5.77
2019-03-08T17:50:08.637Z,7.13
2019-03-08T17:53:03.341Z,5.03
2019-03-08T17:55:48.564Z,7.37
2019-03-08T17:58:36.394Z,8.37
2019-03-08T18:01:13.170Z,4.63
2019-03-08T18:04:01.366Z,7.63
2019-03-08T18:06:40.183Z,5.20
2019-03-08T18:09:22.000Z,9.23
2019-03-08T18:12:11.710Z,11.57
2019-03-08T18:14:58.409Z,7.17
2019-03-08T18:17:46.189Z,5.20
2019-03-08T18:20:34.045Z,6.80
2019-03-08T18:23:21.123Z,15.70
2019-03-08T18:26:18.409Z,6.17
2019-03-08T18:28:57.501Z,7.13
2019-03-08T18:31:38.009Z,10.53
2019-03-08T18:34:18.370Z,7.73
2019-03-08T18:37:06.268Z,10.90
2019-03-08T18:39:46.410Z,6.50
2019-03-08T18:42:24.473Z,5.47
2019-03-08T18:44:59.808Z,6.03
2019-03-08T18:47:35.077Z,12.07
2019-03-08T18:50:27.281Z,7.80
2019-03-08T18:53:09.224Z,5.80
2019-03-08T18:55:46.216Z,5.60
2019-03-08T18:58:37.141Z,6.70
2019-03-08T19:01:27.145Z,8.43
2019-03-08T19:04:03.471Z,9.20
2019-03-08T19:06:40.805Z,8.53
2019-03-08T19:09:15.666Z,5.80
2019-03-08T19:11:50.153Z,10.23
2019-03-08T19:14:33.502Z,7.90
2019-03-08T19:17:15.581Z,8.27
2019-03-08T19:20:01.786Z,13.33
2019-03-08T19:22:45.437Z,7.53
2019-03-08T19:25:33.413Z,11.20
2019-03-08T19:28:19.917Z,9.43
2019-03-08T19:31:04.177Z,6.57
2019-03-08T19:33:50.910Z,8.73
2019-03-08T19:36:47.926Z,9.73
2019-03-08T19:39:51.181Z,12.67
2019-03-08T19:42:25.933Z,22.53
2019-03-08T19:45:00.351Z,13.80
2019-03-08T19:47:38.090Z,9.93
2019-03-08T19:50:17.510Z,9.73
2019-03-08T19:53:17.753Z,14.13
2019-03-08T19:56:05.394Z,8.93
2019-03-08T19:58:52.667Z,11.30
2019-03-08T20:01:46.106Z,10.47
2019-03-08T20:04:33.647Z,15.90
2019-03-08T20:07:20.729Z,12.87
2019-03-08T20:09:57.446Z,31.43
2019-03-08T20:12:44.233Z,35.73
2019-03-08T20:15:47.657Z,25.47
2019-03-08T20:18:41.397Z,21.47
2019-03-08T20:21:23.130Z,7.83
2019-03-08T20:24:01.321Z,16.43
2019-03-08T20:26:58.487Z,10.47
2019-03-08T20:29:52.808Z,7.47
2019-03-08T20:32:46.771Z,5.87
2019-03-08T20:35:25.049Z,9.63
2019-03-08T20:37:59.911Z,13.83
2019-03-08T20:40:46.675Z,5.73
2019-03-08T20:43:23.061Z,6.43
2019-03-08T20:46:13.350Z,10.23
2019-03-08T20:48:44.913Z,7.40
2019-03-08T20:51:13.861Z,7.87
2019-03-08T20:53:42.602Z,6.97
2019-03-08T20:56:11.470Z,7.33
2019-03-08T20:58:40.153Z,4.17
2019-03-08T21:01:09.001Z,6.93
2019-03-08T21:03:38.087Z,6.50
2019-03-08T21:06:06.941Z,4.43
2019-03-08T21:08:35.765Z,4.17
2019-03-08T21:11:04.574Z,6.50
2019-03-08T21:13:33.335Z,2.50
2019-03-08T21:16:02.061Z,5.70
2019-03-08T21:18:30.817Z,2.27
2019-03-08T21:20:59.529Z,3.27
2019-03-08T21:23:28.293Z,6.43
2019-03-08T21:25:57.043Z,9.23
2019-03-08T21:28:25.766Z,4.60
2019-03-08T21:30:54.741Z,7.07
2019-03-08T21:33:23.490Z,2.37
2019-03-08T21:35:52.251Z,4.20
2019-03-08T21:38:20.990Z,3.13
2019-03-08T21:40:49.825Z,2.20
2019-03-08T21:43:18.697Z,5.17
2019-03-08T21:45:47.511Z,6.70
2019-03-08T21:48:16.241Z,5.40
2019-03-08T21:50:44.963Z,1.57
2019-03-08T21:53:13.781Z,5.47
2019-03-08T21:55:42.544Z,1.73
2019-03-08T21:58:11.550Z,3.23
2019-03-08T22:00:40.402Z,2.47
2019-03-08T22:03:09.126Z,3.57
2019-03-08T22:05:38.833Z,3.07
2019-03-08T22:08:16.616Z,2.30
2019-03-08T22:10:44.114Z,2.70
2019-03-08T22:13:12.977Z,1.83
2019-03-08T22:15:41.762Z,2.63
2019-03-08T22:18:10.634Z,2.70
2019-03-08T22:20:39.549Z,5.03
2019-03-08T22:23:08.549Z,9.60
2019-03-08T22:25:37.357Z,4.80
2019-03-08T22:28:06.159Z,22.73
2019-03-08T22:30:34.869Z,10.70
2019-03-08T22:33:03.655Z,6.63
2019-03-08T22:35:32.510Z,4.70
2019-03-08T22:38:01.250Z,3.47
2019-03-08T22:40:30.062Z,3.20
2019-03-08T22:42:58.780Z,2.70
2019-03-08T22:45:29.385Z,5.57
2019-03-08T22:47:58.190Z,5.37
2019-03-08T22:50:26.921Z,4.50
2019-03-08T22:52:55.665Z,5.67
2019-03-08T22:55:24.396Z,9.80
2019-03-08T22:57:53.120Z,3.30
2019-03-08T23:00:49.994Z,4.93
2019-03-08T23:03:19.173Z,6.93
2019-03-08T23:05:48.151Z,4.47
2019-03-08T23:08:17.078Z,7.30
2019-03-08T23:10:46.310Z,4.87
2019-03-08T23:13:15.128Z,4.87
2019-03-08T23:15:44.033Z,6.57
2019-03-08T23:18:12.808Z,7.27
2019-03-08T23:20:41.609Z,10.80
2019-03-08T23:23:10.367Z,6.00
2019-03-08T23:25:39.097Z,6.17
2019-03-08T23:28:20.136Z,11.37
2019-03-08T23:30:50.383Z,8.53
2019-03-08T23:33:19.137Z,6.23
2019-03-08T23:35:47.879Z,7.73
2019-03-08T23:38:16.669Z,8.70
2019-03-08T23:40:45.548Z,6.03
2019-03-08T23:43:14.475Z,7.13
2019-03-08T23:45:43.217Z,6.77
2019-03-08T23:48:12.013Z,7.93
2019-03-08T23:50:40.753Z,4.90
2019-03-08T23:53:09.454Z,5.23
2019-03-08T23:55:38.229Z,9.03
2019-03-08T23:58:06.973Z,6.23
